sensor_id;sensor_type;location;lat;lon;timestamp;P1;durP1;ratioP1;P2;durP2;ratioP2
64651;SDS011;51062;45.120;37.660;2023-07-29T00:00:46;23.48;;;21.77;;
64651;SDS011;51062;45.120;37.660;2023-07-29T00:03:12;20.98;;;19.67;;
64651;SDS011;51062;45.120;37.660;2023-07-29T00:05:38;21.92;;;20.58;;
64651;SDS011;51062;45.120;37.660;2023-07-29T00:08:05;21.08;;;19.65;;
64651;SDS011;51062;45.120;37.660;2023-07-29T00:10:31;18.90;;;17.67;;
64651;SDS011;51062;45.120;37.660;2023-07-29T00:12:58;20.58;;;19.27;;
64651;SDS011;51062;45.120;37.660;2023-07-29T00:15:24;22.13;;;20.67;;
64651;SDS011;51062;45.120;37.660;2023-07-29T00:17:50;26.35;;;24.73;;
64651;SDS011;51062;45.120;37.660;2023-07-29T00:20:16;22.35;;;21.00;;
64651;SDS011;51062;45.120;37.660;2023-07-29T00:22:43;24.17;;;22.65;;
64651;SDS011;51062;45.120;37.660;2023-07-29T00:25:09;22.92;;;21.48;;
64651;SDS011;51062;45.120;37.660;2023-07-29T00:27:35;23.90;;;22.35;;
64651;SDS011;51062;45.120;37.660;2023-07-29T00:30:01;20.60;;;19.20;;
64651;SDS011;51062;45.120;37.660;2023-07-29T00:32:29;20.08;;;18.70;;
64651;SDS011;51062;45.120;37.660;2023-07-29T00:34:56;19.38;;;18.17;;
64651;SDS011;51062;45.120;37.660;2023-07-29T00:37:22;22.15;;;20.75;;
64651;SDS011;51062;45.120;37.660;2023-07-29T00:39:48;22.40;;;21.00;;
64651;SDS011;51062;45.120;37.660;2023-07-29T00:42:14;20.63;;;19.27;;
64651;SDS011;51062;45.120;37.660;2023-07-29T00:44:41;21.65;;;20.20;;
64651;SDS011;51062;45.120;37.660;2023-07-29T00:47:07;26.05;;;21.33;;
64651;SDS011;51062;45.120;37.660;2023-07-29T00:49:34;21.85;;;20.20;;
64651;SDS011;51062;45.120;37.660;2023-07-29T00:52:00;20.90;;;19.55;;
64651;SDS011;51062;45.120;37.660;2023-07-29T00:54:26;20.70;;;19.25;;
64651;SDS011;51062;45.120;37.660;2023-07-29T00:56:52;20.92;;;19.58;;
64651;SDS011;51062;45.120;37.660;2023-07-29T00:59:18;19.02;;;17.80;;
64651;SDS011;51062;45.120;37.660;2023-07-29T01:01:44;21.33;;;19.60;;
64651;SDS011;51062;45.120;37.660;2023-07-29T01:04:10;20.95;;;19.63;;
64651;SDS011;51062;45.120;37.660;2023-07-29T01:12:37;17.55;;;16.45;;
64651;SDS011;51062;45.120;37.660;2023-07-29T01:15:15;18.60;;;17.38;;
64651;SDS011;51062;45.120;37.660;2023-07-29T01:17:47;18.02;;;16.92;;
64651;SDS011;51062;45.120;37.660;2023-07-29T01:20:29;19.40;;;17.90;;
64651;SDS011;51062;45.120;37.660;2023-07-29T01:22:59;38.10;;;20.02;;
64651;SDS011;51062;45.120;37.660;2023-07-29T01:25:25;20.83;;;19.52;;
64651;SDS011;51062;45.120;37.660;2023-07-29T01:27:52;24.48;;;22.45;;
64651;SDS011;51062;45.120;37.660;2023-07-29T01:30:22;22.00;;;20.60;;
64651;SDS011;51062;45.120;37.660;2023-07-29T01:32:54;19.92;;;18.63;;
64651;SDS011;51062;45.120;37.660;2023-07-29T01:35:43;20.25;;;19.00;;
64651;SDS011;51062;45.120;37.660;2023-07-29T01:38:32;19.55;;;18.25;;
64651;SDS011;51062;45.120;37.660;2023-07-29T01:41:01;18.50;;;17.35;;
64651;SDS011;51062;45.120;37.660;2023-07-29T01:43:31;22.17;;;20.67;;
64651;SDS011;51062;45.120;37.660;2023-07-29T01:45:58;20.38;;;19.05;;
64651;SDS011;51062;45.120;37.660;2023-07-29T01:48:24;19.92;;;18.65;;
64651;SDS011;51062;45.120;37.660;2023-07-29T01:50:50;21.38;;;20.05;;
64651;SDS011;51062;45.120;37.660;2023-07-29T01:53:16;22.25;;;20.83;;
64651;SDS011;51062;45.120;37.660;2023-07-29T01:55:43;20.98;;;19.52;;
64651;SDS011;51062;45.120;37.660;2023-07-29T01:58:10;19.02;;;17.58;;
64651;SDS011;51062;45.120;37.660;2023-07-29T02:00:38;19.77;;;18.40;;
64651;SDS011;51062;45.120;37.660;2023-07-29T02:03:05;19.40;;;18.15;;
64651;SDS011;51062;45.120;37.660;2023-07-29T02:05:31;19.48;;;18.08;;
64651;SDS011;51062;45.120;37.660;2023-07-29T02:07:57;20.73;;;19.38;;
64651;SDS011;51062;45.120;37.660;2023-07-29T02:10:23;21.27;;;19.33;;
64651;SDS011;51062;45.120;37.660;2023-07-29T02:12:50;21.25;;;19.85;;
64651;SDS011;51062;45.120;37.660;2023-07-29T02:15:15;20.10;;;18.85;;
64651;SDS011;51062;45.120;37.660;2023-07-29T02:17:42;19.90;;;18.60;;
64651;SDS011;51062;45.120;37.660;2023-07-29T02:20:08;23.52;;;22.00;;
64651;SDS011;51062;45.120;37.660;2023-07-29T02:22:36;22.98;;;21.55;;
64651;SDS011;51062;45.120;37.660;2023-07-29T02:25:03;19.75;;;18.48;;
64651;SDS011;51062;45.120;37.660;2023-07-29T02:27:29;23.27;;;21.65;;
64651;SDS011;51062;45.120;37.660;2023-07-29T02:29:55;21.75;;;20.35;;
64651;SDS011;51062;45.120;37.660;2023-07-29T02:32:21;22.10;;;20.65;;
64651;SDS011;51062;45.120;37.660;2023-07-29T02:34:48;22.13;;;20.67;;
64651;SDS011;51062;45.120;37.660;2023-07-29T02:37:15;69.10;;;62.78;;
64651;SDS011;51062;45.120;37.660;2023-07-29T02:39:42;26.45;;;24.75;;
64651;SDS011;51062;45.120;37.660;2023-07-29T02:42:08;26.70;;;24.65;;
64651;SDS011;51062;45.120;37.660;2023-07-29T02:44:34;20.30;;;18.98;;
64651;SDS011;51062;45.120;37.660;2023-07-29T02:47:00;25.75;;;24.02;;
64651;SDS011;51062;45.120;37.660;2023-07-29T02:49:27;23.77;;;21.55;;
64651;SDS011;51062;45.120;37.660;2023-07-29T02:51:53;23.38;;;21.92;;
64651;SDS011;51062;45.120;37.660;2023-07-29T02:54:39;34.33;;;31.88;;
64651;SDS011;51062;45.120;37.660;2023-07-29T02:57:05;30.77;;;28.38;;
64651;SDS011;51062;45.120;37.660;2023-07-29T02:59:31;37.60;;;34.65;;
64651;SDS011;51062;45.120;37.660;2023-07-29T03:01:57;33.58;;;31.38;;
64651;SDS011;51062;45.120;37.660;2023-07-29T03:04:23;33.60;;;31.38;;
64651;SDS011;51062;45.120;37.660;2023-07-29T03:06:50;34.15;;;31.75;;
64651;SDS011;51062;45.120;37.660;2023-07-29T03:09:16;45.53;;;42.47;;
64651;SDS011;51062;45.120;37.660;2023-07-29T03:11:42;35.00;;;32.58;;
64651;SDS011;51062;45.120;37.660;2023-07-29T03:14:08;37.97;;;35.47;;
64651;SDS011;51062;45.120;37.660;2023-07-29T03:16:34;45.13;;;42.03;;
64651;SDS011;51062;45.120;37.660;2023-07-29T03:19:00;47.22;;;44.13;;
64651;SDS011;51062;45.120;37.660;2023-07-29T03:21:26;49.03;;;45.55;;
64651;SDS011;51062;45.120;37.660;2023-07-29T03:23:53;45.72;;;41.63;;
64651;SDS011;51062;45.120;37.660;2023-07-29T03:26:19;49.75;;;46.35;;
64651;SDS011;51062;45.120;37.660;2023-07-29T03:28:45;49.50;;;45.72;;
64651;SDS011;51062;45.120;37.660;2023-07-29T03:31:11;48.78;;;45.50;;
64651;SDS011;51062;45.120;37.660;2023-07-29T03:33:37;54.60;;;50.88;;
64651;SDS011;51062;45.120;37.660;2023-07-29T03:36:04;56.05;;;52.17;;
64651;SDS011;51062;45.120;37.660;2023-07-29T03:38:30;54.50;;;50.80;;
64651;SDS011;51062;45.120;37.660;2023-07-29T03:40:58;57.20;;;53.22;;
64651;SDS011;51062;45.120;37.660;2023-07-29T03:43:24;58.08;;;54.10;;
64651;SDS011;51062;45.120;37.660;2023-07-29T03:45:54;55.97;;;52.05;;
64651;SDS011;51062;45.120;37.660;2023-07-29T03:48:20;55.53;;;51.58;;
64651;SDS011;51062;45.120;37.660;2023-07-29T03:50:46;56.03;;;52.15;;
64651;SDS011;51062;45.120;37.660;2023-07-29T03:53:12;63.38;;;58.67;;
64651;SDS011;51062;45.120;37.660;2023-07-29T03:55:39;51.22;;;47.58;;
64651;SDS011;51062;45.120;37.660;2023-07-29T03:58:05;51.88;;;48.28;;
64651;SDS011;51062;45.120;37.660;2023-07-29T04:00:31;52.42;;;48.83;;
64651;SDS011;51062;45.120;37.660;2023-07-29T04:02:57;52.72;;;48.78;;
64651;SDS011;51062;45.120;37.660;2023-07-29T04:05:23;53.92;;;50.28;;
64651;SDS011;51062;45.120;37.660;2023-07-29T04:07:50;56.08;;;51.90;;
64651;SDS011;51062;45.120;37.660;2023-07-29T04:10:16;60.95;;;56.72;;
64651;SDS011;51062;45.120;37.660;2023-07-29T04:12:42;60.20;;;55.75;;
64651;SDS011;51062;45.120;37.660;2023-07-29T04:15:09;59.35;;;54.83;;
64651;SDS011;51062;45.120;37.660;2023-07-29T04:17:35;61.83;;;57.55;;
64651;SDS011;51062;45.120;37.660;2023-07-29T04:20:03;65.30;;;60.55;;
64651;SDS011;51062;45.120;37.660;2023-07-29T04:22:33;71.05;;;66.00;;
64651;SDS011;51062;45.120;37.660;2023-07-29T04:24:59;69.85;;;64.97;;
64651;SDS011;51062;45.120;37.660;2023-07-29T04:27:25;69.20;;;63.95;;
64651;SDS011;51062;45.120;37.660;2023-07-29T04:29:51;64.25;;;59.83;;
64651;SDS011;51062;45.120;37.660;2023-07-29T04:32:17;70.20;;;65.38;;
64651;SDS011;51062;45.120;37.660;2023-07-29T04:34:43;69.57;;;64.57;;
64651;SDS011;51062;45.120;37.660;2023-07-29T04:37:09;67.57;;;62.85;;
64651;SDS011;51062;45.120;37.660;2023-07-29T04:39:36;68.53;;;63.40;;
64651;SDS011;51062;45.120;37.660;2023-07-29T04:42:02;73.03;;;67.80;;
64651;SDS011;51062;45.120;37.660;2023-07-29T04:44:28;72.88;;;67.63;;
64651;SDS011;51062;45.120;37.660;2023-07-29T04:46:55;69.57;;;63.90;;
64651;SDS011;51062;45.120;37.660;2023-07-29T04:49:21;73.53;;;68.15;;
64651;SDS011;51062;45.120;37.660;2023-07-29T04:51:47;74.75;;;69.30;;
64651;SDS011;51062;45.120;37.660;2023-07-29T04:54:13;77.40;;;71.93;;
64651;SDS011;51062;45.120;37.660;2023-07-29T04:56:40;71.18;;;66.20;;
64651;SDS011;51062;45.120;37.660;2023-07-29T04:59:07;73.43;;;68.07;;
64651;SDS011;51062;45.120;37.660;2023-07-29T05:01:34;78.18;;;72.47;;
64651;SDS011;51062;45.120;37.660;2023-07-29T05:04:00;78.50;;;72.80;;
64651;SDS011;51062;45.120;37.660;2023-07-29T05:06:28;74.18;;;68.75;;
64651;SDS011;51062;45.120;37.660;2023-07-29T05:08:54;75.22;;;69.70;;
64651;SDS011;51062;45.120;37.660;2023-07-29T05:11:20;76.50;;;70.38;;
64651;SDS011;51062;45.120;37.660;2023-07-29T05:13:47;72.90;;;67.85;;
64651;SDS011;51062;45.120;37.660;2023-07-29T05:16:13;71.28;;;66.18;;
64651;SDS011;51062;45.120;37.660;2023-07-29T05:18:39;72.50;;;67.22;;
64651;SDS011;51062;45.120;37.660;2023-07-29T05:21:05;76.22;;;70.65;;
64651;SDS011;51062;45.120;37.660;2023-07-29T05:23:31;76.32;;;70.80;;
64651;SDS011;51062;45.120;37.660;2023-07-29T05:25:57;75.25;;;69.70;;
64651;SDS011;51062;45.120;37.660;2023-07-29T05:28:23;73.75;;;68.53;;
64651;SDS011;51062;45.120;37.660;2023-07-29T05:30:50;82.00;;;76.20;;
64651;SDS011;51062;45.120;37.660;2023-07-29T05:33:16;75.72;;;70.28;;
64651;SDS011;51062;45.120;37.660;2023-07-29T05:35:42;72.10;;;66.65;;
64651;SDS011;51062;45.120;37.660;2023-07-29T05:38:08;78.68;;;72.95;;
64651;SDS011;51062;45.120;37.660;2023-07-29T05:40:35;75.00;;;69.57;;
64651;SDS011;51062;45.120;37.660;2023-07-29T05:43:01;79.57;;;73.88;;
64651;SDS011;51062;45.120;37.660;2023-07-29T05:45:28;70.50;;;65.32;;
64651;SDS011;51062;45.120;37.660;2023-07-29T05:47:56;72.70;;;67.43;;
64651;SDS011;51062;45.120;37.660;2023-07-29T05:50:22;74.00;;;68.50;;
64651;SDS011;51062;45.120;37.660;2023-07-29T05:52:48;61.95;;;57.60;;
64651;SDS011;51062;45.120;37.660;2023-07-29T05:55:15;72.47;;;67.25;;
64651;SDS011;51062;45.120;37.660;2023-07-29T05:57:43;76.50;;;71.10;;
64651;SDS011;51062;45.120;37.660;2023-07-29T06:00:09;71.65;;;66.60;;
64651;SDS011;51062;45.120;37.660;2023-07-29T06:02:39;77.28;;;71.45;;
64651;SDS011;51062;45.120;37.660;2023-07-29T06:05:09;71.15;;;66.03;;
64651;SDS011;51062;45.120;37.660;2023-07-29T06:07:35;72.95;;;67.75;;
64651;SDS011;51062;45.120;37.660;2023-07-29T06:10:01;66.65;;;61.97;;
64651;SDS011;51062;45.120;37.660;2023-07-29T06:12:27;72.93;;;67.50;;
64651;SDS011;51062;45.120;37.660;2023-07-29T06:14:54;79.63;;;73.75;;
64651;SDS011;51062;45.120;37.660;2023-07-29T06:17:20;77.28;;;71.47;;
64651;SDS011;51062;45.120;37.660;2023-07-29T06:19:46;74.00;;;68.32;;
64651;SDS011;51062;45.120;37.660;2023-07-29T06:22:12;66.97;;;61.97;;
64651;SDS011;51062;45.120;37.660;2023-07-29T06:24:38;67.65;;;62.60;;
64651;SDS011;51062;45.120;37.660;2023-07-29T06:27:04;65.05;;;60.47;;
64651;SDS011;51062;45.120;37.660;2023-07-29T06:29:31;68.05;;;63.17;;
64651;SDS011;51062;45.120;37.660;2023-07-29T06:31:58;62.15;;;57.83;;
64651;SDS011;51062;45.120;37.660;2023-07-29T06:34:24;66.70;;;61.88;;
64651;SDS011;51062;45.120;37.660;2023-07-29T06:36:50;77.82;;;71.57;;
64651;SDS011;51062;45.120;37.660;2023-07-29T06:39:16;66.60;;;61.80;;
64651;SDS011;51062;45.120;37.660;2023-07-29T06:41:42;70.53;;;64.60;;
64651;SDS011;51062;45.120;37.660;2023-07-29T06:44:08;76.40;;;70.90;;
64651;SDS011;51062;45.120;37.660;2023-07-29T06:46:34;69.85;;;64.90;;
64651;SDS011;51062;45.120;37.660;2023-07-29T06:49:00;74.72;;;68.38;;
64651;SDS011;51062;45.120;37.660;2023-07-29T06:51:26;71.45;;;66.22;;
64651;SDS011;51062;45.120;37.660;2023-07-29T06:53:54;73.82;;;68.63;;
64651;SDS011;51062;45.120;37.660;2023-07-29T06:56:20;74.60;;;69.10;;
64651;SDS011;51062;45.120;37.660;2023-07-29T06:58:47;74.32;;;68.32;;
64651;SDS011;51062;45.120;37.660;2023-07-29T07:01:13;67.50;;;62.53;;
64651;SDS011;51062;45.120;37.660;2023-07-29T07:03:39;71.82;;;66.72;;
64651;SDS011;51062;45.120;37.660;2023-07-29T07:06:05;70.90;;;65.80;;
64651;SDS011;51062;45.120;37.660;2023-07-29T07:08:31;71.35;;;66.28;;
64651;SDS011;51062;45.120;37.660;2023-07-29T07:10:57;67.20;;;62.47;;
64651;SDS011;51062;45.120;37.660;2023-07-29T07:13:23;73.93;;;68.68;;
64651;SDS011;51062;45.120;37.660;2023-07-29T07:15:49;66.80;;;62.05;;
64651;SDS011;51062;45.120;37.660;2023-07-29T07:18:15;67.68;;;62.85;;
64651;SDS011;51062;45.120;37.660;2023-07-29T07:20:41;62.70;;;58.33;;
64651;SDS011;51062;45.120;37.660;2023-07-29T07:23:07;71.57;;;65.10;;
64651;SDS011;51062;45.120;37.660;2023-07-29T07:25:36;63.78;;;58.55;;
64651;SDS011;51062;45.120;37.660;2023-07-29T07:28:02;71.05;;;65.32;;
64651;SDS011;51062;45.120;37.660;2023-07-29T07:30:29;84.68;;;78.28;;
64651;SDS011;51062;45.120;37.660;2023-07-29T07:32:55;61.90;;;57.63;;
64651;SDS011;51062;45.120;37.660;2023-07-29T07:35:21;90.47;;;83.65;;
64651;SDS011;51062;45.120;37.660;2023-07-29T07:37:47;66.80;;;62.00;;
64651;SDS011;51062;45.120;37.660;2023-07-29T07:40:13;63.45;;;58.30;;
64651;SDS011;51062;45.120;37.660;2023-07-29T07:42:39;55.13;;;51.33;;
64651;SDS011;51062;45.120;37.660;2023-07-29T07:45:05;61.50;;;57.25;;
64651;SDS011;51062;45.120;37.660;2023-07-29T07:47:31;57.90;;;53.83;;
64651;SDS011;51062;45.120;37.660;2023-07-29T07:49:57;56.20;;;52.22;;
64651;SDS011;51062;45.120;37.660;2023-07-29T07:52:23;57.78;;;53.67;;
64651;SDS011;51062;45.120;37.660;2023-07-29T07:54:53;53.35;;;49.63;;
64651;SDS011;51062;45.120;37.660;2023-07-29T07:57:20;56.85;;;52.75;;
64651;SDS011;51062;45.120;37.660;2023-07-29T07:59:47;52.70;;;48.78;;
64651;SDS011;51062;45.120;37.660;2023-07-29T08:02:13;58.67;;;54.53;;
64651;SDS011;51062;45.120;37.660;2023-07-29T08:04:39;63.45;;;58.65;;
64651;SDS011;51062;45.120;37.660;2023-07-29T08:07:05;57.75;;;53.75;;
64651;SDS011;51062;45.120;37.660;2023-07-29T08:09:31;62.03;;;57.63;;
64651;SDS011;51062;45.120;37.660;2023-07-29T08:11:57;62.42;;;58.05;;
64651;SDS011;51062;45.120;37.660;2023-07-29T08:14:23;63.53;;;58.85;;
64651;SDS011;51062;45.120;37.660;2023-07-29T08:16:50;60.33;;;56.03;;
64651;SDS011;51062;45.120;37.660;2023-07-29T08:19:16;54.15;;;50.45;;
64651;SDS011;51062;45.120;37.660;2023-07-29T08:21:42;54.10;;;50.25;;
64651;SDS011;51062;45.120;37.660;2023-07-29T08:24:08;52.92;;;49.25;;
64651;SDS011;51062;45.120;37.660;2023-07-29T08:26:34;66.90;;;62.08;;
64651;SDS011;51062;45.120;37.660;2023-07-29T08:29:00;60.08;;;55.80;;
64651;SDS011;51062;45.120;37.660;2023-07-29T08:31:26;49.47;;;46.13;;
64651;SDS011;51062;45.120;37.660;2023-07-29T08:33:52;48.75;;;45.35;;
64651;SDS011;51062;45.120;37.660;2023-07-29T08:36:18;54.17;;;50.08;;
64651;SDS011;51062;45.120;37.660;2023-07-29T08:38:44;49.00;;;45.55;;
64651;SDS011;51062;45.120;37.660;2023-07-29T08:41:14;50.20;;;46.65;;
64651;SDS011;51062;45.120;37.660;2023-07-29T08:46:42;52.05;;;48.53;;
64651;SDS011;51062;45.120;37.660;2023-07-29T08:49:08;48.75;;;45.45;;
64651;SDS011;51062;45.120;37.660;2023-07-29T08:51:39;45.72;;;42.78;;
64651;SDS011;51062;45.120;37.660;2023-07-29T08:54:07;50.63;;;47.15;;
64651;SDS011;51062;45.120;37.660;2023-07-29T08:56:35;53.70;;;49.50;;
64651;SDS011;51062;45.120;37.660;2023-07-29T08:59:02;50.75;;;47.30;;
64651;SDS011;51062;45.120;37.660;2023-07-29T09:01:30;48.08;;;44.88;;
64651;SDS011;51062;45.120;37.660;2023-07-29T09:03:56;55.03;;;51.28;;
64651;SDS011;51062;45.120;37.660;2023-07-29T09:06:23;44.13;;;41.15;;
64651;SDS011;51062;45.120;37.660;2023-07-29T09:08:51;48.95;;;45.60;;
64651;SDS011;51062;45.120;37.660;2023-07-29T09:11:19;48.15;;;44.97;;
64651;SDS011;51062;45.120;37.660;2023-07-29T09:13:46;44.08;;;40.95;;
64651;SDS011;51062;45.120;37.660;2023-07-29T09:16:13;50.40;;;47.00;;
64651;SDS011;51062;45.120;37.660;2023-07-29T09:18:39;54.35;;;50.65;;
64651;SDS011;51062;45.120;37.660;2023-07-29T09:21:05;45.75;;;42.10;;
64651;SDS011;51062;45.120;37.660;2023-07-29T09:23:38;51.15;;;40.80;;
64651;SDS011;51062;45.120;37.660;2023-07-29T09:26:08;43.65;;;40.45;;
64651;SDS011;51062;45.120;37.660;2023-07-29T09:28:35;42.15;;;39.33;;
64651;SDS011;51062;45.120;37.660;2023-07-29T09:31:02;38.55;;;35.95;;
64651;SDS011;51062;45.120;37.660;2023-07-29T09:33:29;42.05;;;39.03;;
64651;SDS011;51062;45.120;37.660;2023-07-29T09:36:01;40.50;;;37.60;;
64651;SDS011;51062;45.120;37.660;2023-07-29T09:38:27;38.55;;;35.88;;
64651;SDS011;51062;45.120;37.660;2023-07-29T09:40:57;39.33;;;36.63;;
64651;SDS011;51062;45.120;37.660;2023-07-29T09:43:28;38.50;;;35.92;;
64651;SDS011;51062;45.120;37.660;2023-07-29T09:46:05;38.38;;;35.72;;
64651;SDS011;51062;45.120;37.660;2023-07-29T09:48:34;36.80;;;34.40;;
64651;SDS011;51062;45.120;37.660;2023-07-29T09:51:13;39.17;;;36.58;;
64651;SDS011;51062;45.120;37.660;2023-07-29T09:53:45;43.67;;;40.28;;
64651;SDS011;51062;45.120;37.660;2023-07-29T09:56:12;34.97;;;32.70;;
64651;SDS011;51062;45.120;37.660;2023-07-29T09:58:39;40.60;;;37.72;;
64651;SDS011;51062;45.120;37.660;2023-07-29T10:01:08;47.00;;;43.60;;
64651;SDS011;51062;45.120;37.660;2023-07-29T10:03:34;42.65;;;39.72;;
64651;SDS011;51062;45.120;37.660;2023-07-29T10:06:02;43.92;;;41.00;;
64651;SDS011;51062;45.120;37.660;2023-07-29T10:08:29;40.10;;;37.25;;
64651;SDS011;51062;45.120;37.660;2023-07-29T10:11:06;43.92;;;40.00;;
64651;SDS011;51062;45.120;37.660;2023-07-29T10:13:33;42.15;;;39.28;;
64651;SDS011;51062;45.120;37.660;2023-07-29T10:16:00;41.03;;;37.47;;
64651;SDS011;51062;45.120;37.660;2023-07-29T10:18:31;43.47;;;40.58;;
64651;SDS011;51062;45.120;37.660;2023-07-29T10:21:00;43.00;;;40.08;;
64651;SDS011;51062;45.120;37.660;2023-07-29T10:23:27;43.20;;;40.17;;
64651;SDS011;51062;45.120;37.660;2023-07-29T10:25:59;43.95;;;40.47;;
64651;SDS011;51062;45.120;37.660;2023-07-29T10:28:31;36.97;;;34.15;;
64651;SDS011;51062;45.120;37.660;2023-07-29T10:30:58;36.25;;;33.75;;
64651;SDS011;51062;45.120;37.660;2023-07-29T10:33:25;38.22;;;35.58;;
64651;SDS011;51062;45.120;37.660;2023-07-29T10:35:55;37.25;;;34.65;;
64651;SDS011;51062;45.120;37.660;2023-07-29T10:38:24;44.03;;;41.03;;
64651;SDS011;51062;45.120;37.660;2023-07-29T10:40:51;38.30;;;35.60;;
64651;SDS011;51062;45.120;37.660;2023-07-29T10:43:26;34.85;;;32.15;;
64651;SDS011;51062;45.120;37.660;2023-07-29T10:45:52;43.53;;;40.58;;
64651;SDS011;51062;45.120;37.660;2023-07-29T10:56:30;40.60;;;37.67;;
64651;SDS011;51062;45.120;37.660;2023-07-29T11:01:51;37.08;;;34.63;;
64651;SDS011;51062;45.120;37.660;2023-07-29T11:12:36;34.60;;;32.28;;
64651;SDS011;51062;45.120;37.660;2023-07-29T11:17:40;29.88;;;27.40;;
64651;SDS011;51062;45.120;37.660;2023-07-29T11:20:09;29.40;;;27.38;;
64651;SDS011;51062;45.120;37.660;2023-07-29T11:22:36;30.23;;;28.15;;
64651;SDS011;51062;45.120;37.660;2023-07-29T11:25:03;31.92;;;29.55;;
64651;SDS011;51062;45.120;37.660;2023-07-29T11:27:31;33.30;;;31.10;;
64651;SDS011;51062;45.120;37.660;2023-07-29T11:29:57;39.60;;;36.70;;
64651;SDS011;51062;45.120;37.660;2023-07-29T11:32:28;33.17;;;30.92;;
64651;SDS011;51062;45.120;37.660;2023-07-29T11:34:55;34.42;;;28.02;;
64651;SDS011;51062;45.120;37.660;2023-07-29T11:37:21;31.65;;;29.48;;
64651;SDS011;51062;45.120;37.660;2023-07-29T11:39:47;35.78;;;33.25;;
64651;SDS011;51062;45.120;37.660;2023-07-29T11:42:14;33.42;;;30.98;;
64651;SDS011;51062;45.120;37.660;2023-07-29T11:44:40;35.35;;;32.85;;
64651;SDS011;51062;45.120;37.660;2023-07-29T11:47:07;30.13;;;28.05;;
64651;SDS011;51062;45.120;37.660;2023-07-29T11:49:34;43.20;;;39.80;;
64651;SDS011;51062;45.120;37.660;2023-07-29T11:52:05;27.92;;;26.08;;
64651;SDS011;51062;45.120;37.660;2023-07-29T11:54:33;29.05;;;26.88;;
64651;SDS011;51062;45.120;37.660;2023-07-29T11:57:01;29.58;;;27.48;;
64651;SDS011;51062;45.120;37.660;2023-07-29T11:59:29;29.25;;;26.67;;
64651;SDS011;51062;45.120;37.660;2023-07-29T12:01:55;27.55;;;25.55;;
64651;SDS011;51062;45.120;37.660;2023-07-29T12:04:21;33.60;;;30.95;;
64651;SDS011;51062;45.120;37.660;2023-07-29T12:06:47;32.47;;;30.27;;
64651;SDS011;51062;45.120;37.660;2023-07-29T12:09:13;29.15;;;26.55;;
64651;SDS011;51062;45.120;37.660;2023-07-29T12:11:39;30.20;;;27.92;;
64651;SDS011;51062;45.120;37.660;2023-07-29T12:14:07;30.75;;;28.65;;
64651;SDS011;51062;45.120;37.660;2023-07-29T12:16:40;28.23;;;26.30;;
64651;SDS011;51062;45.120;37.660;2023-07-29T12:19:07;32.35;;;29.67;;
64651;SDS011;51062;45.120;37.660;2023-07-29T12:21:34;29.58;;;27.60;;
64651;SDS011;51062;45.120;37.660;2023-07-29T12:24:02;32.10;;;29.88;;
64651;SDS011;51062;45.120;37.660;2023-07-29T12:26:31;32.65;;;30.13;;
64651;SDS011;51062;45.120;37.660;2023-07-29T12:28:57;32.67;;;30.42;;
64651;SDS011;51062;45.120;37.660;2023-07-29T12:31:33;33.13;;;30.92;;
64651;SDS011;51062;45.120;37.660;2023-07-29T12:34:02;33.67;;;30.60;;
64651;SDS011;51062;45.120;37.660;2023-07-29T12:36:41;37.47;;;34.92;;
64651;SDS011;51062;45.120;37.660;2023-07-29T12:39:21;35.60;;;33.17;;
64651;SDS011;51062;45.120;37.660;2023-07-29T12:41:50;32.42;;;30.23;;
64651;SDS011;51062;45.120;37.660;2023-07-29T12:44:18;39.13;;;36.22;;
64651;SDS011;51062;45.120;37.660;2023-07-29T12:46:44;37.70;;;35.03;;
64651;SDS011;51062;45.120;37.660;2023-07-29T12:49:11;34.50;;;32.20;;
64651;SDS011;51062;45.120;37.660;2023-07-29T12:51:37;37.28;;;34.67;;
64651;SDS011;51062;45.120;37.660;2023-07-29T12:54:04;56.13;;;30.33;;
64651;SDS011;51062;45.120;37.660;2023-07-29T12:56:30;39.53;;;36.63;;
64651;SDS011;51062;45.120;37.660;2023-07-29T12:58:57;40.35;;;37.58;;
64651;SDS011;51062;45.120;37.660;2023-07-29T13:01:24;31.33;;;29.13;;
64651;SDS011;51062;45.120;37.660;2023-07-29T13:03:50;35.22;;;32.60;;
64651;SDS011;51062;45.120;37.660;2023-07-29T13:06:17;34.10;;;31.63;;
64651;SDS011;51062;45.120;37.660;2023-07-29T13:08:43;32.20;;;30.05;;
64651;SDS011;51062;45.120;37.660;2023-07-29T13:11:09;56.65;;;52.55;;
64651;SDS011;51062;45.120;37.660;2023-07-29T13:13:36;33.25;;;31.00;;
64651;SDS011;51062;45.120;37.660;2023-07-29T13:16:02;31.42;;;29.23;;
64651;SDS011;51062;45.120;37.660;2023-07-29T13:18:28;34.72;;;32.30;;
64651;SDS011;51062;45.120;37.660;2023-07-29T13:20:55;32.80;;;30.58;;
64651;SDS011;51062;45.120;37.660;2023-07-29T13:23:21;37.60;;;35.00;;
64651;SDS011;51062;45.120;37.660;2023-07-29T13:25:47;37.03;;;34.33;;
64651;SDS011;51062;45.120;37.660;2023-07-29T13:28:13;32.90;;;30.67;;
64651;SDS011;51062;45.120;37.660;2023-07-29T13:30:39;33.45;;;31.13;;
64651;SDS011;51062;45.120;37.660;2023-07-29T13:33:06;31.75;;;29.63;;
64651;SDS011;51062;45.120;37.660;2023-07-29T13:35:32;32.58;;;30.23;;
64651;SDS011;51062;45.120;37.660;2023-07-29T13:37:59;36.83;;;34.20;;
64651;SDS011;51062;45.120;37.660;2023-07-29T13:40:26;37.00;;;34.15;;
64651;SDS011;51062;45.120;37.660;2023-07-29T13:42:52;34.00;;;31.70;;
64651;SDS011;51062;45.120;37.660;2023-07-29T13:45:19;36.25;;;33.80;;
64651;SDS011;51062;45.120;37.660;2023-07-29T13:47:45;32.13;;;29.92;;
64651;SDS011;51062;45.120;37.660;2023-07-29T13:50:11;36.83;;;34.33;;
64651;SDS011;51062;45.120;37.660;2023-07-29T13:52:37;31.85;;;29.73;;
64651;SDS011;51062;45.120;37.660;2023-07-29T13:55:04;31.92;;;29.77;;
64651;SDS011;51062;45.120;37.660;2023-07-29T13:57:31;28.58;;;26.58;;
64651;SDS011;51062;45.120;37.660;2023-07-29T13:59:57;26.50;;;24.65;;
64651;SDS011;51062;45.120;37.660;2023-07-29T14:02:24;27.83;;;25.98;;
64651;SDS011;51062;45.120;37.660;2023-07-29T14:04:53;29.05;;;27.00;;
64651;SDS011;51062;45.120;37.660;2023-07-29T14:07:20;27.35;;;25.45;;
64651;SDS011;51062;45.120;37.660;2023-07-29T14:09:46;30.17;;;28.13;;
64651;SDS011;51062;45.120;37.660;2023-07-29T14:12:12;32.72;;;30.48;;
64651;SDS011;51062;45.120;37.660;2023-07-29T14:14:40;28.13;;;26.20;;
64651;SDS011;51062;45.120;37.660;2023-07-29T14:17:07;27.77;;;25.80;;
64651;SDS011;51062;45.120;37.660;2023-07-29T14:19:34;33.33;;;28.98;;
64651;SDS011;51062;45.120;37.660;2023-07-29T14:22:00;34.97;;;31.17;;
64651;SDS011;51062;45.120;37.660;2023-07-29T14:24:26;37.08;;;34.47;;
64651;SDS011;51062;45.120;37.660;2023-07-29T14:26:52;29.35;;;27.35;;
64651;SDS011;51062;45.120;37.660;2023-07-29T14:29:18;37.22;;;34.65;;
64651;SDS011;51062;45.120;37.660;2023-07-29T14:31:44;32.08;;;29.90;;
64651;SDS011;51062;45.120;37.660;2023-07-29T14:34:10;30.67;;;28.38;;
64651;SDS011;51062;45.120;37.660;2023-07-29T14:36:36;32.45;;;30.25;;
64651;SDS011;51062;45.120;37.660;2023-07-29T14:39:02;26.58;;;24.30;;